Time;durP1;ratioP1;P1;durP2;ratioP2;P2;SDS_P1;SDS_P2;PMS_P1;PMS_P2;Temp;Humidity;BMP_temperature;BMP_pressure;BME280_temperature;BME280_humidity;BME280_pressure;Samples;Min_cycle;Max_cycle;Signal;HPM_P1;HPM_P2
2022/05/14 00:01:21;;;;;;;9.73;6.53;;;11.00;99.90;;;;;;4992418;28;20232;-75
2022/05/14 00:03:49;;;;;;;10.03;6.30;;;11.00;99.90;;;;;;4992801;28;20189;-75
2022/05/14 00:06:20;;;;;;;12.03;6.90;;;11.00;99.90;;;;;;4991955;28;20299;-77
2022/05/14 00:08:47;;;;;;;10.13;6.50;;;10.90;99.90;;;;;;4993534;28;20296;-76
2022/05/14 00:14:03;;;;;;;11.80;7.13;;;10.90;99.90;;;;;;4991973;28;20599;-75
2022/05/14 00:16:32;;;;;;;8.97;6.80;;;10.70;99.90;;;;;;4992248;28;20323;-75
2022/05/14 00:19:00;;;;;;;10.73;7.00;;;10.70;99.90;;;;;;4992090;28;20292;-69
2022/05/14 00:21:27;;;;;;;9.67;7.43;;;10.60;99.90;;;;;;4992295;28;20246;-77
2022/05/14 00:23:54;;;;;;;12.80;7.60;;;10.60;99.90;;;;;;4992194;28;20214;-71
2022/05/14 00:26:21;;;;;;;9.33;7.43;;;10.60;99.90;;;;;;4992029;28;20299;-68
2022/05/14 00:28:48;;;;;;;11.43;7.40;;;10.60;99.90;;;;;;4992403;28;20200;-75
2022/05/14 00:31:16;;;;;;;12.50;8.17;;;10.60;99.90;;;;;;4991943;28;20309;-66
2022/05/14 00:33:45;;;;;;;11.50;8.43;;;10.50;99.90;;;;;;4992164;28;20205;-65
2022/05/14 00:36:12;;;;;;;11.10;8.33;;;10.40;99.90;;;;;;4991388;28;20255;-64
2022/05/14 00:38:40;;;;;;;11.50;8.50;;;10.30;99.90;;;;;;4992051;28;20256;-65
2022/05/14 00:41:08;;;;;;;12.30;9.07;;;10.30;99.90;;;;;;4993146;28;20284;-76
2022/05/14 00:43:56;;;;;;;12.63;8.50;;;10.30;99.90;;;;;;4991830;28;20284;-65
2022/05/14 00:46:26;;;;;;;12.43;8.30;;;10.30;99.90;;;;;;4992006;28;20645;-66
2022/05/14 00:48:57;;;;;;;12.37;8.80;;;10.20;99.90;;;;;;4991891;28;20299;-66
2022/05/14 00:51:32;;;;;;;10.60;8.80;;;10.30;99.90;;;;;;4991617;28;20641;-65
2022/05/14 00:54:10;;;;;;;11.93;8.67;;;10.30;99.90;;;;;;4995462;28;20239;-76
2022/05/14 00:56:42;;;;;;;12.27;9.23;;;10.30;99.90;;;;;;4995721;28;20752;-64
2022/05/14 00:59:13;;;;;;;11.47;9.13;;;10.20;99.90;;;;;;4997736;28;20220;-66
2022/05/14 01:01:41;;;;;;;13.40;9.10;;;10.30;99.90;;;;;;4995461;28;20605;-65
2022/05/14 01:04:09;;;;;;;13.73;8.70;;;10.40;99.90;;;;;;4995530;28;20192;-65
2022/05/14 01:06:38;;;;;;;10.87;8.60;;;10.40;99.90;;;;;;4995572;28;20240;-65
2022/05/14 01:09:06;;;;;;;10.93;8.40;;;10.40;99.90;;;;;;4996794;28;20247;-65
2022/05/14 01:11:38;;;;;;;11.40;8.63;;;10.40;99.90;;;;;;4995889;28;20563;-64
2022/05/14 01:14:06;;;;;;;11.00;8.63;;;10.40;99.90;;;;;;4996512;28;20207;-64
2022/05/14 01:16:33;;;;;;;10.00;8.27;;;10.40;99.90;;;;;;4997065;28;20289;-64
2022/05/14 01:19:00;;;;;;;10.90;8.43;;;10.40;99.90;;;;;;4995491;28;20219;-65
2022/05/14 01:21:30;;;;;;;12.57;9.10;;;10.30;99.90;;;;;;4995295;28;20233;-65
2022/05/14 01:26:52;;;;;;;11.77;8.07;;;10.20;99.90;;;;;;4995350;28;20239;-65
2022/05/14 01:29:23;;;;;;;11.37;8.70;;;10.20;99.90;;;;;;4994983;28;20283;-65
2022/05/14 01:31:51;;;;;;;11.60;8.60;;;10.30;99.90;;;;;;4995458;28;20770;-66
2022/05/14 01:34:30;;;;;;;12.13;8.73;;;10.30;99.90;;;;;;4995019;28;20251;-73
2022/05/14 01:36:57;;;;;;;11.50;8.57;;;10.40;99.90;;;;;;4995087;28;20228;-66
2022/05/14 01:39:25;;;;;;;11.30;8.27;;;10.20;99.90;;;;;;4979274;28;20312;-66
2022/05/14 01:41:52;;;;;;;11.13;7.67;;;10.20;99.90;;;;;;4995222;28;20196;-77
2022/05/14 01:44:19;;;;;;;11.87;8.40;;;10.10;99.90;;;;;;4995135;28;20209;-75
2022/05/14 01:46:47;;;;;;;13.17;8.27;;;10.20;99.90;;;;;;4996201;28;20719;-74
2022/05/14 01:49:14;;;;;;;11.83;8.23;;;10.10;99.90;;;;;;4995025;28;20239;-73
2022/05/14 01:51:41;;;;;;;10.97;7.83;;;10.10;99.90;;;;;;4994655;28;20205;-77
2022/05/14 01:54:08;;;;;;;9.57;7.03;;;10.10;99.90;;;;;;4994689;28;20197;-76
2022/05/14 01:56:35;;;;;;;10.63;7.37;;;10.20;99.90;;;;;;4994383;28;20678;-74
2022/05/14 01:59:02;;;;;;;9.37;6.90;;;10.00;99.90;;;;;;4994678;28;20300;-76
2022/05/14 02:01:34;;;;;;;10.33;6.83;;;10.00;99.90;;;;;;4994500;28;20209;-76
2022/05/14 02:04:09;;;;;;;7.43;6.37;;;10.00;99.90;;;;;;4993886;28;20193;-74
2022/05/14 02:06:37;;;;;;;10.83;6.40;;;10.00;99.90;;;;;;4994644;28;20342;-75
2022/05/14 02:09:06;;;;;;;11.93;6.33;;;10.00;99.90;;;;;;4994610;28;20312;-76
2022/05/14 02:11:33;;;;;;;10.03;6.17;;;10.00;99.90;;;;;;4994761;28;20292;-75
2022/05/14 02:14:00;;;;;;;8.43;5.60;;;10.00;99.90;;;;;;4994462;28;20291;-79
2022/05/14 02:16:27;;;;;;;9.43;6.70;;;9.90;99.90;;;;;;4994644;28;20319;-76
2022/05/14 02:18:54;;;;;;;8.90;6.20;;;9.90;99.90;;;;;;4994654;28;20328;-75
2022/05/14 02:21:24;;;;;;;10.97;6.53;;;9.90;99.90;;;;;;4993463;28;20205;-74
2022/05/14 02:23:53;;;;;;;9.33;6.00;;;9.80;99.90;;;;;;4994192;28;20201;-75
2022/05/14 02:26:20;;;;;;;7.67;5.70;;;9.70;99.90;;;;;;4993569;28;20240;-77
2022/05/14 02:28:47;;;;;;;8.83;6.27;;;9.70;99.90;;;;;;4994327;28;20296;-73
2022/05/14 02:31:14;;;;;;;7.90;5.90;;;9.80;99.90;;;;;;4994012;28;20201;-74
2022/05/14 02:33:41;;;;;;;7.70;5.90;;;9.80;99.90;;;;;;4994357;28;20228;-63
2022/05/14 02:36:10;;;;;;;7.97;6.00;;;9.80;99.90;;;;;;4995098;28;20220;-66
2022/05/14 02:38:38;;;;;;;9.77;6.10;;;9.80;99.90;;;;;;4995285;28;20193;-66
2022/05/14 02:41:07;;;;;;;7.93;5.73;;;9.80;99.90;;;;;;4995509;28;20235;-66
2022/05/14 02:43:34;;;;;;;13.53;6.17;;;9.80;99.90;;;;;;4993854;28;20204;-66
2022/05/14 02:46:01;;;;;;;10.03;5.97;;;9.80;99.90;;;;;;4993742;28;20299;-66
2022/05/14 02:48:28;;;;;;;8.03;5.73;;;9.80;99.90;;;;;;4993643;28;20235;-65
2022/05/14 02:50:59;;;;;;;10.07;6.17;;;9.80;99.90;;;;;;4995083;28;20193;-65
2022/05/14 02:53:26;;;;;;;10.00;5.93;;;9.90;99.90;;;;;;4995064;28;20537;-65
2022/05/14 02:55:54;;;;;;;8.10;5.60;;;9.90;99.90;;;;;;4993516;28;20271;-66
2022/05/14 03:01:07;;;;;;;8.93;5.90;;;9.90;99.90;;;;;;4993321;28;20235;-66
2022/05/14 03:03:34;;;;;;;7.33;5.70;;;9.90;99.90;;;;;;4993478;28;20201;-68
2022/05/14 03:06:01;;;;;;;8.77;6.00;;;9.90;99.90;;;;;;4994383;28;20228;-66
2022/05/14 03:08:29;;;;;;;8.47;5.83;;;9.90;99.90;;;;;;4993132;28;20332;-67
2022/05/14 03:10:56;;;;;;;7.07;5.47;;;10.00;99.90;;;;;;4994727;28;20215;-66
2022/05/14 03:13:23;;;;;;;9.70;6.13;;;10.00;99.90;;;;;;4994558;28;20193;-71
2022/05/14 03:15:50;;;;;;;8.27;6.20;;;10.00;99.90;;;;;;4992390;28;20235;-67
2022/05/14 03:18:17;;;;;;;7.07;5.27;;;10.10;99.90;;;;;;4994527;28;20535;-67
2022/05/14 03:20:45;;;;;;;8.50;5.43;;;10.10;99.90;;;;;;4993258;28;20646;-66
2022/05/14 03:23:12;;;;;;;8.13;5.33;;;10.10;99.90;;;;;;4993216;28;20595;-66
2022/05/14 03:25:39;;;;;;;9.83;5.77;;;10.20;99.90;;;;;;4993137;28;20275;-65
2022/05/14 03:28:06;;;;;;;9.17;5.20;;;10.10;99.90;;;;;;4994263;28;20217;-77
2022/05/14 03:30:33;;;;;;;20.63;6.50;;;10.20;99.90;;;;;;4992870;28;20231;-67
2022/05/14 03:32:59;;;;;;;8.30;5.23;;;10.30;99.90;;;;;;4993124;28;20628;-67
2022/05/14 03:35:27;;;;;;;8.87;5.43;;;10.30;99.90;;;;;;4993093;28;20284;-72
2022/05/14 03:37:53;;;;;;;10.03;5.13;;;10.40;99.90;;;;;;4993140;28;20315;-68
2022/05/14 03:40:20;;;;;;;8.03;5.37;;;10.40;99.90;;;;;;4992621;28;20208;-68
2022/05/14 03:42:47;;;;;;;8.33;4.90;;;10.40;99.90;;;;;;4994136;28;20288;-71
2022/05/14 03:45:14;;;;;;;7.33;4.73;;;10.40;99.90;;;;;;4992302;28;20631;-74
2022/05/14 03:47:42;;;;;;;10.60;5.13;;;10.50;99.90;;;;;;4993026;28;20251;-70
2022/05/14 03:50:09;;;;;;;9.00;4.97;;;10.60;99.90;;;;;;4992932;28;20193;-77
2022/05/14 03:52:37;;;;;;;9.27;5.00;;;10.70;99.90;;;;;;4993316;28;20606;-78
2022/05/14 03:55:06;;;;;;;9.07;4.63;;;10.70;99.90;;;;;;5000403;28;20205;-74
2022/05/14 03:57:33;;;;;;;7.20;5.03;;;10.70;99.90;;;;;;4992425;28;20319;-78
2022/05/14 04:00:01;;;;;;;7.03;4.60;;;10.70;99.90;;;;;;4992487;28;20724;-77
2022/05/14 04:02:28;;;;;;;9.10;4.80;;;10.70;99.90;;;;;;4992775;28;20201;-72
2022/05/14 04:04:55;;;;;;;6.83;4.40;;;10.70;99.90;;;;;;4993719;28;20213;-71
2022/05/14 04:07:22;;;;;;;9.37;4.90;;;10.80;99.90;;;;;;4991872;28;20327;-70
2022/05/14 04:09:49;;;;;;;7.17;4.60;;;10.80;99.90;;;;;;4992619;28;20664;-71
2022/05/14 04:12:16;;;;;;;7.83;4.90;;;10.80;99.90;;;;;;4993635;28;20263;-70
2022/05/14 04:14:43;;;;;;;7.10;4.57;;;10.80;99.90;;;;;;4992026;28;20231;-78
2022/05/14 04:17:10;;;;;;;9.80;4.80;;;10.90;99.90;;;;;;4992355;28;20248;-71
2022/05/14 04:19:36;;;;;;;8.43;4.80;;;11.00;99.90;;;;;;4992469;28;20205;-76
2022/05/14 04:22:04;;;;;;;6.70;4.47;;;11.00;99.90;;;;;;4992574;28;20201;-78
2022/05/14 04:24:32;;;;;;;7.60;4.90;;;10.90;99.90;;;;;;4992269;28;20200;-72
2022/05/14 04:26:59;;;;;;;7.53;4.70;;;10.90;99.90;;;;;;4993467;28;20188;-77
2022/05/14 04:29:26;;;;;;;7.63;4.40;;;11.00;99.90;;;;;;4992529;28;20193;-77
2022/05/14 04:31:53;;;;;;;7.07;4.67;;;11.00;99.90;;;;;;4992336;28;20276;-77
2022/05/14 04:34:20;;;;;;;7.40;4.43;;;11.20;99.90;;;;;;4992203;28;20197;-75
2022/05/14 04:36:47;;;;;;;6.77;4.57;;;11.20;99.90;;;;;;4992054;28;20244;-77
2022/05/14 04:39:14;;;;;;;6.37;4.50;;;11.20;99.90;;;;;;4992811;28;20207;-75
2022/05/14 04:41:41;;;;;;;9.07;4.73;;;11.20;99.90;;;;;;4997065;28;20220;-73
2022/05/14 04:44:12;;;;;;;8.83;4.63;;;11.20;99.90;;;;;;4995435;28;20205;-72
2022/05/14 04:46:39;;;;;;;8.77;4.63;;;11.20;99.90;;;;;;4995458;28;20201;-75
2022/05/14 04:49:05;;;;;;;9.30;4.77;;;11.30;99.90;;;;;;4994059;28;20263;-75
2022/05/14 04:51:32;;;;;;;8.67;4.60;;;11.20;99.90;;;;;;4992823;28;20716;-73
2022/05/14 04:54:02;;;;;;;9.33;4.70;;;11.30;99.90;;;;;;4991807;28;20207;-72
2022/05/14 04:56:30;;;;;;;8.07;4.43;;;11.40;99.90;;;;;;4976621;28;20221;-74
2022/05/14 04:58:57;;;;;;;9.63;4.63;;;11.30;99.90;;;;;;4991686;28;20292;-75
2022/05/14 05:01:23;;;;;;;8.83;4.60;;;11.40;99.90;;;;;;4992154;28;20205;-75
2022/05/14 05:03:51;;;;;;;7.13;4.40;;;11.50;99.90;;;;;;4991569;28;20244;-75
2022/05/14 05:06:20;;;;;;;7.73;4.37;;;11.50;99.90;;;;;;4975608;28;20239;-75
2022/05/14 05:08:49;;;;;;;6.40;4.30;;;11.60;99.90;;;;;;4981171;28;20224;-77
2022/05/14 05:11:16;;;;;;;8.47;4.63;;;11.60;99.90;;;;;;4991889;28;20283;-75
2022/05/14 05:13:43;;;;;;;8.60;4.37;;;11.60;99.90;;;;;;4991713;28;20307;-75
2022/05/14 05:16:10;;;;;;;7.27;4.50;;;11.60;99.90;;;;;;4991604;28;20224;-74
2022/05/14 05:18:38;;;;;;;7.97;4.80;;;11.60;99.90;;;;;;4991618;28;20304;-75
2022/05/14 05:21:07;;;;;;;10.20;4.43;;;11.60;99.90;;;;;;4993212;28;20216;-75
2022/05/14 05:23:34;;;;;;;8.37;4.23;;;11.70;99.90;;;;;;4997731;28;20216;-73
2022/05/14 05:26:01;;;;;;;10.50;4.60;;;11.70;99.90;;;;;;4991368;28;20197;-77
2022/05/14 05:28:28;;;;;;;6.27;4.30;;;11.60;99.90;;;;;;4991678;28;20205;-77
2022/05/14 05:30:56;;;;;;;7.50;4.40;;;11.60;99.90;;;;;;4991433;28;20651;-77
2022/05/14 05:33:25;;;;;;;10.50;4.13;;;11.70;99.90;;;;;;4991475;28;20661;-77
2022/05/14 05:35:52;;;;;;;7.00;4.40;;;11.80;99.90;;;;;;4991500;28;20713;-75
2022/05/14 05:38:19;;;;;;;7.93;4.37;;;11.70;99.90;;;;;;4991555;28;20256;-77
2022/05/14 05:40:46;;;;;;;7.70;4.37;;;11.80;99.90;;;;;;4996328;28;20185;-77
2022/05/14 05:43:13;;;;;;;9.13;4.43;;;11.80;99.90;;;;;;4994743;28;20280;-76
2022/05/14 05:45:44;;;;;;;6.77;4.20;;;11.80;99.90;;;;;;4995199;28;20201;-76
2022/05/14 05:48:11;;;;;;;9.40;4.43;;;11.80;99.90;;;;;;4995067;28;20215;-78
2022/05/14 05:50:38;;;;;;;7.00;4.10;;;12.00;99.90;;;;;;4995189;28;20914;-74
2022/05/14 05:53:06;;;;;;;11.20;4.37;;;12.20;99.90;;;;;;4996148;28;20642;-75
2022/05/14 05:58:19;;;;;;;9.70;3.97;;;12.40;99.90;;;;;;4994850;28;20228;-78
2022/05/14 06:00:47;;;;;;;7.43;3.50;;;12.50;99.90;;;;;;4996104;28;20276;-78
2022/05/14 06:03:14;;;;;;;6.40;3.67;;;12.60;99.90;;;;;;4994976;28;20215;-73
2022/05/14 06:05:42;;;;;;;7.53;3.87;;;12.70;99.90;;;;;;4994432;28;20695;-70
2022/05/14 06:08:12;;;;;;;6.30;3.70;;;12.80;99.90;;;;;;4994192;28;20275;-71
2022/05/14 06:10:41;;;;;;;7.87;3.97;;;12.80;99.90;;;;;;4994843;28;20280;-75
2022/05/14 06:13:12;;;;;;;8.53;3.80;;;12.80;99.90;;;;;;4994415;28;20247;-75
2022/05/14 06:15:40;;;;;;;14.30;4.40;;;12.90;99.90;;;;;;4995806;28;20193;-74
2022/05/14 06:18:08;;;;;;;8.00;3.87;;;13.00;99.90;;;;;;4994421;28;20694;-72
2022/05/14 06:20:37;;;;;;;8.67;3.80;;;13.00;99.90;;;;;;4994221;28;20250;-73
2022/05/14 06:23:05;;;;;;;7.27;3.43;;;13.10;99.90;;;;;;4995576;28;20205;-72
2022/05/14 06:25:32;;;;;;;8.80;3.63;;;13.20;99.90;;;;;;4994222;28;20404;-72
2022/05/14 06:27:59;;;;;;;10.33;3.80;;;13.20;99.90;;;;;;4994586;28;20197;-71
2022/05/14 06:30:26;;;;;;;7.30;3.50;;;13.20;99.90;;;;;;4994016;28;20276;-71
2022/05/14 06:32:53;;;;;;;9.07;3.63;;;13.30;99.90;;;;;;4994581;28;20219;-71
2022/05/14 06:35:20;;;;;;;7.87;3.60;;;13.40;99.90;;;;;;4993740;28;20231;-72
2022/05/14 06:37:47;;;;;;;7.33;3.20;;;13.60;99.90;;;;;;4993625;28;20237;-72
2022/05/14 06:40:16;;;;;;;7.57;3.80;;;13.70;99.90;;;;;;4993940;28;20200;-73
2022/05/14 06:42:45;;;;;;;7.10;3.63;;;13.70;99.90;;;;;;4993918;28;20210;-75
2022/05/14 06:45:12;;;;;;;6.43;3.33;;;13.60;99.90;;;;;;4993701;28;20622;-71
2022/05/14 06:47:40;;;;;;;6.77;3.30;;;13.70;99.90;;;;;;4993737;28;20243;-76
2022/05/14 06:50:07;;;;;;;7.03;3.10;;;13.60;99.90;;;;;;4993872;28;20201;-70
2022/05/14 06:52:35;;;;;;;4.90;3.03;;;13.60;99.90;;;;;;4993460;28;20634;-70
2022/05/14 06:55:02;;;;;;;10.17;3.33;;;13.70;99.90;;;;;;4993602;28;20231;-74
2022/05/14 06:57:33;;;;;;;5.30;3.00;;;13.70;99.90;;;;;;4977214;28;20430;-71
2022/05/14 07:00:00;;;;;;;10.90;3.07;;;13.60;99.90;;;;;;4993619;28;20228;-71
2022/05/14 07:02:28;;;;;;;6.73;3.10;;;13.60;99.90;;;;;;4993744;28;20211;-73
2022/05/14 07:07:42;;;;;;;6.97;3.10;;;13.50;99.90;;;;;;4993541;28;20216;-73
2022/05/14 07:10:09;;;;;;;5.87;2.90;;;13.60;99.90;;;;;;4993434;28;20215;-71
2022/05/14 07:12:36;;;;;;;4.93;2.80;;;13.70;99.90;;;;;;4993325;28;20231;-71
2022/05/14 07:15:04;;;;;;;7.27;3.00;;;13.90;99.90;;;;;;4993490;28;20573;-75
2022/05/14 07:17:32;;;;;;;4.90;2.77;;;14.00;99.90;;;;;;4994250;28;20259;-74
2022/05/14 07:19:59;;;;;;;7.67;3.30;;;14.20;99.90;;;;;;4993349;28;20231;-73
2022/05/14 07:22:26;;;;;;;5.50;2.47;;;14.30;99.90;;;;;;4994501;28;20587;-72
2022/05/14 07:24:52;;;;;;;16.37;3.77;;;14.40;99.90;;;;;;4993004;28;20231;-70
2022/05/14 07:27:19;;;;;;;5.37;2.43;;;14.50;99.90;;;;;;4992893;28;20208;-74
2022/05/14 07:29:46;;;;;;;6.87;3.27;;;14.60;99.90;;;;;;4993521;28;20291;-75
2022/05/14 07:32:16;;;;;;;5.23;2.60;;;14.70;99.90;;;;;;4992970;28;20561;-78
2022/05/14 07:34:43;;;;;;;5.70;2.70;;;14.80;99.90;;;;;;4992599;28;20204;-75
2022/05/14 07:37:18;;;;;;;6.67;2.67;;;14.90;99.90;;;;;;4992692;28;20264;-76
2022/05/14 07:39:51;;;;;;;7.27;2.73;;;15.10;99.90;;;;;;4994042;28;20710;-74
2022/05/14 07:42:23;;;;;;;8.27;3.07;;;15.30;99.90;;;;;;4992778;28;20288;-77
2022/05/14 07:44:54;;;;;;;6.03;2.77;;;15.50;99.90;;;;;;4992278;28;20291;-78
2022/05/14 07:47:22;;;;;;;8.07;2.90;;;15.60;99.90;;;;;;4992673;28;20666;-78
2022/05/14 07:49:50;;;;;;;9.90;3.60;;;15.40;99.90;;;;;;4999803;28;20300;-75
2022/05/14 07:52:18;;;;;;;5.80;2.80;;;15.70;99.90;;;;;;4993939;28;20677;-76
2022/05/14 07:54:45;;;;;;;7.47;3.17;;;15.60;99.90;;;;;;4992271;28;20693;-70
2022/05/14 07:57:12;;;;;;;7.23;2.83;;;15.60;99.90;;;;;;4992205;28;20685;-75
2022/05/14 07:59:39;;;;;;;6.97;2.90;;;15.70;99.90;;;;;;4993963;28;20296;-70
2022/05/14 08:02:19;;;;;;;10.77;3.10;;;15.90;99.90;;;;;;4992921;28;20189;-75
2022/05/14 08:04:45;;;;;;;5.10;2.93;;;16.00;99.90;;;;;;4993431;28;20188;-77
2022/05/14 08:07:12;;;;;;;6.67;3.20;;;16.10;99.90;;;;;;4993339;28;20260;-76
2022/05/14 08:09:39;;;;;;;5.63;3.10;;;16.20;99.90;;;;;;4992420;28;20259;-73
2022/05/14 08:12:07;;;;;;;8.87;2.73;;;16.30;99.90;;;;;;4993874;28;20189;-73
2022/05/14 08:14:36;;;;;;;6.13;2.93;;;16.20;99.90;;;;;;4992250;28;20235;-72
2022/05/14 08:17:03;;;;;;;6.97;3.10;;;16.80;99.90;;;;;;4992354;28;20295;-75
2022/05/14 08:19:30;;;;;;;9.23;3.10;;;17.00;99.90;;;;;;4992103;28;20196;-70
2022/05/14 08:24:42;;;;;;;5.93;3.10;;;17.70;99.90;;;;;;4992308;28;20215;-72
2022/05/14 08:27:10;;;;;;;11.97;3.87;;;17.40;99.90;;;;;;4992581;28;20235;-76
2022/05/14 08:29:41;;;;;;;7.37;3.50;;;17.10;99.90;;;;;;4992149;28;20227;-70
2022/05/14 08:32:08;;;;;;;7.43;3.57;;;16.80;99.90;;;;;;4992338;28;20197;-75
2022/05/14 08:34:36;;;;;;;6.23;3.20;;;16.60;99.90;;;;;;4993126;28;20671;-74
2022/05/14 08:37:04;;;;;;;6.73;3.47;;;16.30;99.90;;;;;;4991777;28;20260;-74
2022/05/14 08:39:31;;;;;;;7.17;3.27;;;16.20;99.90;;;;;;4992668;28;20220;-69
2022/05/14 08:42:00;;;;;;;6.83;3.10;;;16.20;99.90;;;;;;4991576;28;20196;-70
2022/05/14 08:44:32;;;;;;;7.37;3.40;;;16.10;99.90;;;;;;4991757;28;20200;-71
2022/05/14 08:47:06;;;;;;;10.03;3.30;;;15.80;99.90;;;;;;4991767;28;20200;-69
2022/05/14 08:49:35;;;;;;;8.17;3.43;;;15.80;99.90;;;;;;4991816;28;20192;-71
2022/05/14 08:52:04;;;;;;;9.40;3.47;;;15.80;99.90;;;;;;4992699;28;20228;-71
2022/05/14 08:54:33;;;;;;;6.03;3.47;;;15.70;99.90;;;;;;4991849;28;20668;-69
2022/05/14 08:57:20;;;;;;;6.47;3.57;;;15.60;99.90;;;;;;4991826;28;20251;-72
2022/05/14 08:59:52;;;;;;;8.87;3.80;;;15.50;99.90;;;;;;4991491;28;20209;-74
2022/05/14 09:02:51;;;;;;;7.57;3.83;;;15.50;99.90;;;;;;4991782;28;20192;-75
2022/05/14 09:05:28;;;;;;;5.53;3.67;;;15.60;99.90;;;;;;4992398;28;20617;-75
2022/05/14 09:07:54;;;;;;;9.07;3.73;;;15.50;99.90;;;;;;4992317;28;20323;-71
2022/05/14 09:10:36;;;;;;;12.40;4.77;;;15.60;99.90;;;;;;4991889;28;20295;-68
2022/05/14 09:13:13;;;;;;;8.33;4.30;;;15.70;99.90;;;;;;4992944;28;20208;-69
2022/05/14 09:15:56;;;;;;;8.67;4.50;;;15.70;99.90;;;;;;4995766;28;20635;-79
2022/05/14 09:18:42;;;;;;;7.33;4.00;;;15.80;99.90;;;;;;4995769;28;20228;-75
2022/05/14 09:21:24;;;;;;;8.77;4.27;;;16.00;99.90;;;;;;4996587;28;20296;-72
2022/05/14 09:24:00;;;;;;;6.43;4.10;;;16.00;99.90;;;;;;4998174;28;20201;-76
2022/05/14 09:26:37;;;;;;;10.30;4.73;;;16.20;99.90;;;;;;4995461;28;20641;-78
2022/05/14 09:29:25;;;;;;;8.40;4.40;;;16.10;99.90;;;;;;4995706;28;20266;-71
2022/05/14 09:31:55;;;;;;;8.63;4.43;;;16.10;99.90;;;;;;4995328;28;20572;-80
2022/05/14 09:34:23;;;;;;;11.50;3.97;;;15.80;99.90;;;;;;4995266;28;20251;-70
2022/05/14 09:36:51;;;;;;;7.13;3.60;;;15.80;99.90;;;;;;4995294;28;20685;-77
2022/05/14 09:39:23;;;;;;;8.53;3.50;;;15.80;99.90;;;;;;4995417;28;20221;-78
2022/05/14 09:41:56;;;;;;;7.50;3.50;;;15.90;99.90;;;;;;4995370;28;20197;-78
2022/05/14 09:44:29;;;;;;;7.57;3.50;;;15.80;99.90;;;;;;4996164;28;20284;-75
2022/05/14 09:47:14;;;;;;;5.90;3.17;;;15.80;99.90;;;;;;4995832;28;20189;-75
2022/05/14 09:49:54;;;;;;;6.33;2.80;;;15.90;99.90;;;;;;4995362;28;20231;-68
2022/05/14 09:52:29;;;;;;;7.27;2.90;;;16.10;99.90;;;;;;4996018;28;20281;-70
2022/05/14 09:54:57;;;;;;;5.37;2.50;;;16.20;99.90;;;;;;4995469;28;20204;-77
2022/05/14 09:57:33;;;;;;;8.10;2.90;;;16.30;99.90;;;;;;4994678;28;20251;-71
2022/05/14 10:00:14;;;;;;;8.27;2.80;;;16.30;99.90;;;;;;4994606;28;20247;-77
2022/05/14 10:02:51;;;;;;;8.03;3.17;;;16.50;99.90;;;;;;4994643;28;20200;-76
2022/05/14 10:05:45;;;;;;;10.30;3.57;;;17.00;99.90;;;;;;4995238;28;20197;-78
2022/05/14 10:08:26;;;;;;;8.30;3.63;;;17.40;99.90;;;;;;4993995;28;20252;-76
2022/05/14 10:11:21;;;;;;;10.00;3.73;;;17.20;99.90;;;;;;4996805;28;20295;-78
2022/05/14 10:13:50;;;;;;;7.67;3.47;;;17.40;99.90;;;;;;5003132;28;20228;-79
2022/05/14 10:16:32;;;;;;;7.23;3.37;;;17.50;99.90;;;;;;5005647;28;20272;-78
2022/05/14 10:19:11;;;;;;;6.07;2.83;;;18.00;99.90;;;;;;4997061;28;20220;-73
2022/05/14 10:22:03;;;;;;;8.50;2.90;;;18.00;99.90;;;;;;4997777;28;20189;-77
2022/05/14 10:27:40;;;;;;;8.80;3.40;;;19.10;99.90;;;;;;4995766;28;20193;-77
2022/05/14 10:30:17;;;;;;;7.40;2.80;;;19.60;99.90;;;;;;4995095;28;20251;-71
2022/05/14 10:32:46;;;;;;;7.13;2.80;;;19.80;99.90;;;;;;4994689;28;20296;-73
2022/05/14 10:35:18;;;;;;;7.40;2.90;;;20.50;99.90;;;;;;4997334;28;20643;-79
2022/05/14 10:38:22;;;;;;;8.90;2.30;;;20.90;98.50;;;;;;4998426;28;20196;-72
2022/05/14 10:40:54;;;;;;;7.30;2.60;;;21.00;96.00;;;;;;4920252;29;20209;-71
2022/05/14 10:43:39;;;;;;;9.33;2.90;;;21.10;96.50;;;;;;4920502;29;20207;-70
2022/05/14 10:46:10;;;;;;;7.40;2.70;;;20.70;93.60;;;;;;4919693;29;20238;-71
2022/05/14 10:48:55;;;;;;;6.73;2.57;;;20.00;95.20;;;;;;4935225;29;20286;-77
2022/05/14 10:51:27;;;;;;;6.67;2.40;;;19.40;94.00;;;;;;4920178;29;20226;-78
2022/05/14 10:53:55;;;;;;;7.77;2.67;;;19.10;93.90;;;;;;4920718;29;20202;-78
2022/05/14 10:56:36;;;;;;;8.03;2.43;;;18.80;94.30;;;;;;4921058;29;20703;-77
2022/05/14 10:59:09;;;;;;;7.07;2.00;;;18.50;95.70;;;;;;4936184;29;20242;-73
2022/05/14 11:01:36;;;;;;;7.63;2.23;;;18.30;95.00;;;;;;4936738;29;20195;-73
2022/05/14 11:04:24;;;;;;;7.27;2.30;;;18.10;95.00;;;;;;4935083;29;20301;-72
2022/05/14 11:06:54;;;;;;;5.63;2.10;;;18.00;94.50;;;;;;4919108;29;20253;-79
2022/05/14 11:09:30;;;;;;;8.43;2.50;;;17.80;94.00;;;;;;4920134;29;20227;-78
2022/05/14 11:12:03;;;;;;;9.07;2.37;;;17.50;94.30;;;;;;4919873;29;20335;-71
2022/05/14 11:14:38;;;;;;;6.00;2.03;;;17.50;94.20;;;;;;4918861;29;20205;-70
2022/05/14 11:17:24;;;;;;;8.73;2.20;;;17.50;94.90;;;;;;4959381;28;20208;-75
2022/05/14 11:20:13;;;;;;;8.27;2.20;;;17.90;94.60;;;;;;4993743;28;20323;-70
2022/05/14 11:23:02;;;;;;;8.93;2.40;;;18.80;93.60;;;;;;4993637;28;20201;-80
2022/05/14 11:25:29;;;;;;;8.03;1.80;;;19.20;91.60;;;;;;4993271;28;20201;-76
2022/05/14 11:28:02;;;;;;;11.00;2.23;;;19.20;91.20;;;;;;4993440;28;20196;-77
2022/05/14 11:30:38;;;;;;;4.87;1.93;;;19.20;90.40;;;;;;4993632;28;20212;-80
2022/05/14 11:33:29;;;;;;;9.70;2.50;;;18.70;90.50;;;;;;4995251;28;20193;-79
2022/05/14 11:35:58;;;;;;;4.00;2.33;;;18.80;90.60;;;;;;4993308;28;20233;-79
2022/05/14 11:38:26;;;;;;;7.47;2.43;;;18.50;90.90;;;;;;4997514;28;20220;-78
2022/05/14 11:40:56;;;;;;;6.80;2.10;;;18.60;91.90;;;;;;4994696;28;20292;-79
2022/05/14 11:43:32;;;;;;;6.63;2.40;;;18.00;91.00;;;;;;4993484;28;20255;-81
2022/05/14 11:46:10;;;;;;;7.20;1.80;;;18.00;92.10;;;;;;4993419;28;20291;-80
2022/05/14 11:49:21;;;;;;;7.30;2.17;;;17.90;91.80;;;;;;4993039;28;20203;-81
2022/05/14 11:52:07;;;;;;;11.83;2.73;;;18.00;92.00;;;;;;4993223;28;20715;-81
2022/05/14 11:55:03;;;;;;;4.50;2.10;;;18.10;92.80;;;;;;4994128;28;20208;-78
2022/05/14 11:57:42;;;;;;;10.00;2.03;;;18.20;92.70;;;;;;4994997;28;20726;-77
2022/05/14 12:00:16;;;;;;;5.90;2.17;;;18.00;91.40;;;;;;4995740;28;20298;-81
2022/05/14 12:02:56;;;;;;;8.03;2.33;;;17.90;92.50;;;;;;4993937;28;20197;-82
2022/05/14 12:05:31;;;;;;;6.77;2.10;;;17.80;91.80;;;;;;4992879;28;20263;-80
2022/05/14 12:08:12;;;;;;;7.30;2.30;;;17.50;92.20;;;;;;4995330;28;20281;-79
2022/05/14 12:10:48;;;;;;;5.93;2.40;;;17.30;92.50;;;;;;4993813;28;20205;-80
2022/05/14 12:13:34;;;;;;;6.77;2.10;;;17.30;92.90;;;;;;4996101;28;20295;-72
2022/05/14 12:16:02;;;;;;;6.23;2.17;;;17.50;94.10;;;;;;4996458;28;20245;-79
2022/05/14 12:18:29;;;;;;;6.67;2.23;;;17.60;93.50;;;;;;4994805;28;20344;-82
2022/05/14 12:21:03;;;;;;;8.23;2.50;;;17.50;92.80;;;;;;4992745;28;20197;-80
2022/05/14 12:23:43;;;;;;;5.93;2.23;;;17.60;93.30;;;;;;4992362;28;20299;-80
2022/05/14 12:26:29;;;;;;;6.23;2.03;;;17.50;93.00;;;;;;4994534;28;20223;-80
2022/05/14 12:29:21;;;;;;;6.77;2.20;;;17.50;93.50;;;;;;4995830;28;20232;-72
2022/05/14 12:35:00;;;;;;;8.23;1.83;;;17.70;93.20;;;;;;4996104;28;20555;-74
2022/05/14 12:37:37;;;;;;;4.67;1.93;;;17.60;92.30;;;;;;4991612;28;20291;-74
2022/05/14 12:40:05;;;;;;;8.03;1.97;;;17.40;92.70;;;;;;4992757;28;20634;-77
2022/05/14 12:42:41;;;;;;;12.40;2.47;;;17.30;92.80;;;;;;4992188;28;20291;-79
2022/05/14 12:45:10;;;;;;;6.40;2.20;;;17.30;93.30;;;;;;4991858;28;20197;-78
2022/05/14 12:47:38;;;;;;;7.60;2.00;;;17.40;93.10;;;;;;4995083;28;20247;-81
2022/05/14 12:50:25;;;;;;;7.50;1.97;;;17.40;92.90;;;;;;4998487;28;20228;-78
2022/05/14 12:52:54;;;;;;;9.00;2.07;;;17.40;92.50;;;;;;4998730;28;20279;-72
2022/05/14 12:55:22;;;;;;;5.27;2.47;;;17.50;92.30;;;;;;4991023;28;20622;-68
2022/05/14 12:57:49;;;;;;;7.20;1.90;;;17.80;92.80;;;;;;4998055;28;20205;-66
2022/05/14 13:00:18;;;;;;;7.87;2.20;;;17.90;92.00;;;;;;4999404;28;20255;-68
2022/05/14 13:02:55;;;;;;;5.70;1.93;;;17.80;94.40;;;;;;4998216;28;20208;-67
2022/05/14 13:05:49;;;;;;;5.40;1.90;;;17.70;94.90;;;;;;4997639;28;20243;-68
2022/05/14 13:08:19;;;;;;;8.37;1.90;;;17.80;93.80;;;;;;4998263;28;20327;-68
2022/05/14 13:10:49;;;;;;;8.60;2.00;;;17.80;95.00;;;;;;4997964;28;20200;-69
2022/05/14 13:13:18;;;;;;;6.50;1.97;;;17.60;94.00;;;;;;4998239;28;20227;-65
2022/05/14 13:15:55;;;;;;;7.97;2.00;;;17.60;94.20;;;;;;4998531;28;20204;-66
2022/05/14 13:18:26;;;;;;;7.63;1.83;;;17.60;95.80;;;;;;4998070;28;20196;-65
2022/05/14 13:21:01;;;;;;;10.77;2.40;;;17.80;94.00;;;;;;4997240;28;20299;-67
2022/05/14 13:23:28;;;;;;;8.17;2.20;;;18.00;97.60;;;;;;4997579;28;20200;-70
2022/05/14 13:26:01;;;;;;;8.53;1.80;;;17.90;95.60;;;;;;4999138;28;20609;-68
2022/05/14 13:28:37;;;;;;;7.47;1.77;;;18.00;95.20;;;;;;4998327;28;20204;-63